メインページ
METAR-TAF:

METAR-TAF

空港 :

美保飛行場, 日本

緯度: 35-29N, 経度: 133-15E, 海抜: 6m

現時点の気象観測

当レポートは16分前の23:00(UTC)に作成
南東の風 3kt
気温 12°C
湿度 82%
気圧 1019 hPa
視程10km以上
高度1500ftの雲はほとんどない
高度3500ftの千切れ雲あり
高度6000ftの千切れ雲あり
弱いにわか雨

METAR: RJOH 162300Z 13003KT 9999 -SHRA FEW015 BKN035 BKN060 12/09 Q1019

時間: 08:16 (23:16 UTC)

予報

当レポートは6時間10分前の17:06(UTC)に作成
予報は16日の 18時(UTC)から 18日の 00時(UTC)まで有効
南/南西の風 4kt
視程10km以上
高度2500ftの雲はほとんどない
高度5000ftの千切れ雲あり
17日の 00時(UTC)から 17日の 02時(UTC)まで徐々に
北東の風 14kt
17日の 12時(UTC)から 17日の 15時(UTC)まで徐々に
の風 4kt

TAF: RJOH 161706Z 1618/1800 20004KT 9999 FEW025 BKN050 BECMG 1700/1702 05014KT BECMG 1712/1715 18004KT

4,000以上の空港の気象観測と天気予報(METAR報とTAF報)

利用可能な観測所は地図上に黄色い丸と赤い丸で示す。

丸の上にカーソルを重ねると観測所名を参照できる。

次にクリックすると気象観測と天気予報を参照できる。

マップの切り替え:黒色「×」印の緑ボタンをクリックして拡大、「-」印の緑ボタンをクリックして縮小、緑色の三角印をクリックして隣りの地図に切り替え


METAR-TAF: